createdAt,value
2019-04-25T00:01:49.540Z,8.53
2019-04-25T00:06:56.134Z,9.43
2019-04-25T00:12:02.350Z,8.90
2019-04-25T00:17:08.706Z,8.70
2019-04-25T00:22:25.430Z,11.57
2019-04-25T00:27:32.889Z,10.67
2019-04-25T00:32:39.411Z,7.60
2019-04-25T00:37:46.174Z,11.83
2019-04-25T00:42:53.735Z,7.33
2019-04-25T00:48:00.042Z,6.60
2019-04-25T00:53:05.997Z,6.83
2019-04-25T00:58:18.952Z,8.00
2019-04-25T01:03:28.299Z,7.50
2019-04-25T01:08:35.637Z,7.70
2019-04-25T01:13:42.283Z,6.37
2019-04-25T01:18:48.777Z,13.20
2019-04-25T01:23:55.790Z,8.03
2019-04-25T01:29:03.671Z,7.70
2019-04-25T01:34:14.134Z,6.37
2019-04-25T01:39:41.797Z,6.53
2019-04-25T01:44:49.512Z,6.67
2019-04-25T01:49:56.707Z,8.93
2019-04-25T01:55:05.586Z,6.60
2019-04-25T02:00:14.000Z,7.37
2019-04-25T02:05:20.511Z,4.97
2019-04-25T02:10:27.481Z,8.17
2019-04-25T02:15:34.012Z,11.97
2019-04-25T02:20:40.398Z,6.83
2019-04-25T02:25:46.463Z,5.77
2019-04-25T02:30:57.303Z,6.60
2019-04-25T02:36:04.057Z,8.17
2019-04-25T02:41:09.195Z,6.93
2019-04-25T02:46:49.284Z,6.27
2019-04-25T02:52:12.855Z,7.57
2019-04-25T02:57:15.806Z,7.93
2019-04-25T03:02:22.069Z,5.10
2019-04-25T03:07:28.522Z,7.27
2019-04-25T03:12:36.770Z,6.50
2019-04-25T03:17:44.362Z,6.87
2019-04-25T03:22:50.085Z,9.30
2019-04-25T03:27:56.155Z,8.43
2019-04-25T03:33:07.640Z,5.77
2019-04-25T03:38:10.569Z,6.87
2019-04-25T03:43:17.919Z,6.23
2019-04-25T03:48:25.197Z,16.20
2019-04-25T03:53:31.649Z,6.23
2019-04-25T03:58:38.164Z,5.90
2019-04-25T04:03:44.243Z,6.63
2019-04-25T04:08:50.360Z,6.30
2019-04-25T04:13:56.594Z,8.37
2019-04-25T04:19:04.012Z,8.13
2019-04-25T04:24:17.272Z,13.30
2019-04-25T04:29:25.147Z,5.23
2019-04-25T04:34:33.631Z,7.43
2019-04-25T04:39:39.608Z,7.10
2019-04-25T04:44:45.775Z,7.80
2019-04-25T04:49:51.694Z,9.23
2019-04-25T04:55:06.307Z,9.23
2019-04-25T05:00:05.945Z,7.33
2019-04-25T05:05:40.427Z,6.77
2019-04-25T05:10:47.114Z,8.63
2019-04-25T05:15:53.307Z,10.67
2019-04-25T05:21:00.286Z,10.43
2019-04-25T05:26:06.331Z,7.37
2019-04-25T05:31:27.822Z,10.03
2019-04-25T05:36:39.951Z,13.57
2019-04-25T05:42:07.724Z,5.33
2019-04-25T05:47:15.930Z,7.63
2019-04-25T05:52:22.017Z,8.33
2019-04-25T05:57:28.352Z,6.17
2019-04-25T06:02:34.526Z,6.67
2019-04-25T06:07:40.517Z,7.30
2019-04-25T06:12:53.643Z,7.63
2019-04-25T06:18:19.720Z,8.13
2019-04-25T06:23:45.971Z,8.17
2019-04-25T06:28:57.057Z,7.63
2019-04-25T06:33:58.755Z,8.80
2019-04-25T06:39:08.270Z,11.87
2019-04-25T06:44:30.898Z,11.50
2019-04-25T06:49:38.316Z,16.07
2019-04-25T06:54:44.431Z,13.77
2019-04-25T06:59:50.608Z,9.77
2019-04-25T07:04:56.752Z,14.00
2019-04-25T07:10:03.610Z,24.73
2019-04-25T07:15:10.212Z,23.70
2019-04-25T07:20:16.146Z,26.07
2019-04-25T07:25:26.311Z,20.37
2019-04-25T07:30:50.232Z,23.80
2019-04-25T07:35:49.096Z,13.13
2019-04-25T07:40:55.100Z,16.80
2019-04-25T07:46:01.242Z,18.67
2019-04-25T07:51:07.457Z,22.77
2019-04-25T07:56:14.235Z,30.73
2019-04-25T08:01:20.220Z,30.63
2019-04-25T08:06:27.656Z,18.07
2019-04-25T08:11:34.207Z,20.60
2019-04-25T08:16:44.279Z,31.80
2019-04-25T08:21:50.403Z,18.33
2019-04-25T08:26:56.419Z,20.37
2019-04-25T08:32:04.473Z,20.83
2019-04-25T08:37:18.081Z,88.37
2019-04-25T08:42:18.201Z,43.40
2019-04-25T08:47:24.348Z,26.83
2019-04-25T08:52:30.944Z,29.23
2019-04-25T08:57:55.516Z,25.50
2019-04-25T09:03:05.956Z,24.27
2019-04-25T09:08:14.237Z,22.30
2019-04-25T09:13:20.459Z,28.63
2019-04-25T09:18:26.250Z,21.40
2019-04-25T09:23:34.611Z,24.17
2019-04-25T09:28:44.125Z,19.83
2019-04-25T09:33:51.970Z,15.70
2019-04-25T09:39:00.421Z,27.00
2019-04-25T09:44:09.100Z,27.17
2019-04-25T09:49:39.955Z,17.07
2019-04-25T09:55:04.837Z,17.53
2019-04-25T10:00:18.325Z,17.33
2019-04-25T10:05:24.622Z,17.00
2019-04-25T10:10:30.656Z,16.43
2019-04-25T10:16:05.843Z,17.47
2019-04-25T10:21:14.328Z,16.40
2019-04-25T10:26:22.587Z,15.67
2019-04-25T10:31:29.006Z,14.93
2019-04-25T10:36:35.318Z,11.37
2019-04-25T10:41:41.391Z,11.93
2019-04-25T10:46:48.484Z,12.90
2019-04-25T10:51:54.610Z,16.90
2019-04-25T10:57:00.767Z,18.90
2019-04-25T11:02:08.409Z,10.97
2019-04-25T11:07:14.409Z,12.53
2019-04-25T11:12:21.346Z,15.57
2019-04-25T11:17:27.181Z,22.93
2019-04-25T11:22:34.294Z,26.13
2019-04-25T11:27:40.335Z,35.20
2019-04-25T11:32:46.288Z,37.50
2019-04-25T11:37:54.840Z,37.63
2019-04-25T11:43:01.095Z,34.23
2019-04-25T11:48:07.190Z,30.57
2019-04-25T11:53:14.300Z,40.83
2019-04-25T11:58:20.561Z,44.63
2019-04-25T12:03:27.092Z,34.83
2019-04-25T12:08:33.575Z,25.40
2019-04-25T12:13:39.944Z,20.07
2019-04-25T12:18:48.134Z,28.50
2019-04-25T12:23:53.714Z,25.37
2019-04-25T12:28:59.886Z,19.83
2019-04-25T12:34:06.318Z,20.40
2019-04-25T12:39:14.017Z,21.03
2019-04-25T12:44:38.137Z,19.83
2019-04-25T12:49:46.583Z,26.17
2019-04-25T12:54:54.027Z,17.40
2019-04-25T13:00:00.766Z,23.87
2019-04-25T13:05:08.743Z,18.87
2019-04-25T13:10:16.514Z,16.60
2019-04-25T13:15:25.260Z,23.10
2019-04-25T13:20:30.710Z,21.43
2019-04-25T13:25:37.091Z,18.47
2019-04-25T13:31:12.967Z,23.97
2019-04-25T13:36:19.093Z,19.80
2019-04-25T13:41:25.220Z,20.60
2019-04-25T13:46:32.244Z,15.90
2019-04-25T13:51:38.864Z,14.93
2019-04-25T13:56:45.064Z,13.10
2019-04-25T14:01:51.677Z,19.97
2019-04-25T14:06:57.540Z,17.17
2019-04-25T14:12:05.091Z,22.27
2019-04-25T14:17:33.791Z,18.00
2019-04-25T14:22:40.681Z,20.50
2019-04-25T14:27:46.889Z,15.73
2019-04-25T14:32:53.623Z,19.50
2019-04-25T14:37:59.849Z,18.33
2019-04-25T14:43:06.148Z,16.67
2019-04-25T14:48:11.967Z,22.47
2019-04-25T14:53:17.995Z,13.57
2019-04-25T14:58:26.180Z,15.13
2019-04-25T15:03:32.375Z,17.03
2019-04-25T15:08:38.151Z,10.57
2019-04-25T15:13:44.198Z,19.03
2019-04-25T15:18:50.161Z,18.40
2019-04-25T15:24:00.338Z,20.87
2019-04-25T15:29:04.210Z,16.27
2019-04-25T15:34:10.606Z,15.37
2019-04-25T15:39:41.862Z,13.93
2019-04-25T15:45:05.339Z,14.70
2019-04-25T15:50:13.479Z,20.10
2019-04-25T15:55:19.650Z,15.90
2019-04-25T16:00:32.729Z,14.83
2019-04-25T16:05:39.208Z,16.53
2019-04-25T16:10:45.271Z,12.30
2019-04-25T16:15:51.229Z,15.90
2019-04-25T16:20:57.524Z,20.50
2019-04-25T16:26:05.933Z,16.43
2019-04-25T16:31:14.510Z,15.90
2019-04-25T16:36:20.695Z,19.73
2019-04-25T16:41:27.590Z,13.50
2019-04-25T16:46:34.738Z,15.63
2019-04-25T16:51:40.763Z,9.60
2019-04-25T16:56:46.802Z,16.50
2019-04-25T17:01:52.688Z,16.00
2019-04-25T17:06:59.897Z,14.33
2019-04-25T17:12:06.597Z,12.80
2019-04-25T17:17:30.714Z,13.47
2019-04-25T17:22:39.426Z,9.90
2019-04-25T17:27:46.158Z,12.77
2019-04-25T17:33:05.877Z,20.17
2019-04-25T17:38:19.547Z,11.17
2019-04-25T17:43:25.717Z,16.40
2019-04-25T17:48:31.883Z,8.17
2019-04-25T17:53:39.025Z,13.20
2019-04-25T17:58:46.298Z,16.67
2019-04-25T18:03:52.106Z,9.63
2019-04-25T18:08:57.882Z,12.77
2019-04-25T18:14:03.966Z,17.47
2019-04-25T18:19:17.199Z,18.33
2019-04-25T18:25:00.650Z,16.93
2019-04-25T18:30:08.469Z,12.30
2019-04-25T18:35:23.049Z,16.80
2019-04-25T18:40:52.062Z,13.53
2019-04-25T18:46:03.883Z,17.70
2019-04-25T18:51:09.830Z,15.30
2019-04-25T18:56:35.198Z,13.23
2019-04-25T19:02:03.386Z,19.43
2019-04-25T19:07:09.434Z,15.67
2019-04-25T19:12:15.452Z,7.90
2019-04-25T19:17:21.284Z,18.03
2019-04-25T19:22:27.461Z,19.83
2019-04-25T19:27:34.356Z,22.07
2019-04-25T19:32:41.723Z,29.87
2019-04-25T19:37:48.639Z,11.17
2019-04-25T19:42:58.773Z,14.27
2019-04-25T19:48:04.883Z,18.47
2019-04-25T19:53:11.141Z,14.80
2019-04-25T19:58:18.150Z,14.07
2019-04-25T20:03:33.763Z,19.50
2019-04-25T20:08:50.748Z,15.20
2019-04-25T20:13:58.747Z,15.30
2019-04-25T20:19:05.009Z,14.83
2019-04-25T20:24:10.889Z,16.97
2019-04-25T20:29:17.513Z,14.63
2019-04-25T20:34:23.313Z,13.40
2019-04-25T20:39:29.746Z,16.27
2019-04-25T20:44:36.662Z,17.73
2019-04-25T20:49:42.773Z,21.27
2019-04-25T20:54:49.528Z,14.63
2019-04-25T20:59:55.992Z,9.73
2019-04-25T21:05:02.526Z,13.70
2019-04-25T21:10:10.861Z,14.50
2019-04-25T21:15:34.326Z,11.50
2019-04-25T21:20:40.508Z,10.23
2019-04-25T21:25:46.490Z,9.77
2019-04-25T21:30:52.876Z,8.33
2019-04-25T21:35:59.508Z,14.13
2019-04-25T21:41:23.880Z,9.10
2019-04-25T21:46:30.603Z,7.83
2019-04-25T21:51:37.151Z,11.23
2019-04-25T21:56:43.253Z,9.70
2019-04-25T22:01:49.828Z,8.00
2019-04-25T22:06:56.790Z,7.87
2019-04-25T22:12:03.708Z,8.10
2019-04-25T22:17:09.902Z,9.57
2019-04-25T22:22:16.519Z,14.43
2019-04-25T22:27:28.737Z,8.60
2019-04-25T22:32:41.477Z,15.07
2019-04-25T22:37:47.910Z,8.50
2019-04-25T22:42:54.367Z,9.03
2019-04-25T22:48:01.288Z,11.93
2019-04-25T22:53:21.593Z,9.53
2019-04-25T22:58:18.310Z,11.57
2019-04-25T23:03:32.701Z,11.03
2019-04-25T23:08:39.423Z,6.50
2019-04-25T23:13:45.641Z,9.57
2019-04-25T23:18:52.087Z,6.97
2019-04-25T23:23:59.329Z,7.80
2019-04-25T23:29:06.267Z,8.43
2019-04-25T23:34:12.842Z,7.33
2019-04-25T23:39:18.980Z,8.10
2019-04-25T23:44:25.030Z,7.40
2019-04-25T23:49:31.321Z,7.33
2019-04-25T23:54:37.477Z,6.80
2019-04-25T23:59:44.028Z,12.23
